Terminal Aerodrome Forecast
Issued by NWS Wilmington, NC

Home | Current Version | Previous Version | Text Only | Print | Product List | Glossary On
Versions: 1 2 3 4 5 6 7 8 9 10 11 12 13 14 15 16 17 18 19 20 21 22
000
FTUS42 KILM 010534
TAFILM
TAF
KILM 010534Z 0106/0206 02007KT P6SM VCSH BKN007
      TEMPO 0106/0109 4SM SHRA SCT007 BKN015
     FM010900 36004KT 5SM BR OVC004
     FM011330 36008KT P6SM SCT025 BKN100
     FM011600 06007KT 4SM SHRA BKN030
     FM012300 03005KT P6SM BKN100=

USA.gov is the U.S. government's official web portal to all federal, state and local government web resources and services.